Rugby, North Dakota
Current Conditions -  °F | °C
As of 6:55 AM on Saturday 25 Oct 2014 (Local Time) from KRUG Reporting Station
Clear Clear  
Wind Chill: -5°   Ceiling: Unl
Heat Index: -1°   Visibility: 10mi
Dew Point: -2°   Wind: 8mph
Humidity: 93%   Direction: 260°W
Pressure: 30.07"   Gusts: NA
Location:  48.37°N, 100°W
Report Text: KRUG 251155Z AUTO 26007KT 10SM CLR M01/M02 A3007 RMK AO2
Loading
Personal Weather Stations






























Interactive Weather Map
Tropical Storm Tracking
New forecast layout! Learn more

10-Day Weather Forecast

Advertisements
Track Severe Weather on mobile